Genco Leader — VRYR8 — position and weather

sailwx.info

Track history (hours):
 
Tides and Currents Weather Stations Pressure Air Temp Water Temp Dewpoint Dewpoint Depression Visibility Wind Speed Wind Dir Waves Ship Positions

Genco Leader

Last reported at 2015-Aug-13 06:31 UTC. Time now 2015-Sep-01 12:12 UTC.
Position N 01°15' E 103°58'.
Warning: this ship's position is 19 days out of date.

Length 225 m; draft 10.6 m.

Type: Cargo ship. MMSI: 477132000.

Date/timePositionNaut miles runAvg speedWind from/ knotsBaromVisibWave heightAir tempDewpointWater temp
2015-Aug-13 06:31N 01°15' E 103°58'2 0.3
2015-Aug-12 23:10N 01°17' E 103°58'0 0.0
2015-Aug-12 18:31N 01°17' E 103°58'0 0.0
2015-Aug-12 15:18N 01°16' E 103°58'0 0.1
2015-Aug-12 11:29N 01°16' E 103°57'1 1.2
2015-Aug-12 10:32N 01°15' E 103°57'2 1.8
2015-Aug-12 09:16N 01°13' E 103°56'6 7.6
2015-Aug-12 08:32N 01°11' E 103°51'5 5.2
2015-Aug-12 07:33N 01°09' E 103°46'159 9.9
2015-Aug-11 15:33N 02°31' E 101°30'1210.2
2015-Aug-11 14:24N 02°37' E 101°20'2010.8
2015-Aug-11 12:33N 02°47' E 101°03'2210.9
2015-Aug-11 10:33N 03°00' E 100°46'  
Track history (hours):
 
Tides and Currents Weather Stations Pressure Air Temp Water Temp Dewpoint Dewpoint Depression Visibility Wind Speed Wind Dir Waves Ship Positions

Genco Leader

Last reported at 2015-Aug-13 06:31 UTC. Time now 2015-Sep-01 12:12 UTC.
Position N 01°15' E 103°58'.
Warning: this ship's position is 19 days out of date.

Length 225 m; draft 10.6 m.

Type: Cargo ship. MMSI: 477132000.

Date/timePositionNaut miles runAvg speedWind from/ knotsBaromVisibWave heightAir tempDewpointWater temp
2015-Aug-13 06:31N 01°15' E 103°58'2 0.3
2015-Aug-12 23:10N 01°17' E 103°58'0 0.0
2015-Aug-12 18:31N 01°17' E 103°58'0 0.0
2015-Aug-12 15:18N 01°16' E 103°58'0 0.1
2015-Aug-12 11:29N 01°16' E 103°57'1 1.2
2015-Aug-12 10:32N 01°15' E 103°57'2 1.8
2015-Aug-12 09:16N 01°13' E 103°56'6 7.6
2015-Aug-12 08:32N 01°11' E 103°51'5 5.2
2015-Aug-12 07:33N 01°09' E 103°46'159 9.9
2015-Aug-11 15:33N 02°31' E 101°30'1210.2
2015-Aug-11 14:24N 02°37' E 101°20'2010.8
2015-Aug-11 12:33N 02°47' E 101°03'2210.9
2015-Aug-11 10:33N 03°00' E 100°46'  

Dump ship's entire track history